createdAt,value
2018-07-11T00:00:49.057Z,99.99
2018-07-11T00:01:49.039Z,99.99
2018-07-11T00:02:49.023Z,99.99
2018-07-11T00:03:49.007Z,99.99
2018-07-11T00:04:48.992Z,99.99
2018-07-11T00:05:48.977Z,99.99
2018-07-11T00:06:48.962Z,99.99
2018-07-11T00:07:48.944Z,99.99
2018-07-11T00:08:48.931Z,99.99
2018-07-11T00:09:48.914Z,99.99
2018-07-11T00:10:48.900Z,99.99
2018-07-11T00:11:48.887Z,99.99
2018-07-11T00:12:48.868Z,99.99
2018-07-11T00:13:48.854Z,99.99
2018-07-11T00:14:48.838Z,99.99
2018-07-11T00:15:48.822Z,99.99
2018-07-11T00:16:48.806Z,99.99
2018-07-11T00:17:48.790Z,99.99
2018-07-11T00:18:48.777Z,99.99
2018-07-11T00:19:48.760Z,99.99
2018-07-11T00:20:48.750Z,99.99
2018-07-11T00:21:48.727Z,99.99
2018-07-11T00:22:48.713Z,99.99
2018-07-11T00:23:48.699Z,99.99
2018-07-11T00:24:48.681Z,99.99
2018-07-11T00:25:48.665Z,99.99
2018-07-11T00:26:48.651Z,99.99
2018-07-11T00:27:48.640Z,99.99
2018-07-11T00:28:48.620Z,99.99
2018-07-11T00:29:48.611Z,99.99
2018-07-11T00:30:48.589Z,99.99
2018-07-11T00:31:48.571Z,99.99
2018-07-11T00:32:48.556Z,99.99
2018-07-11T00:33:48.540Z,99.99
2018-07-11T00:34:48.524Z,99.99
2018-07-11T00:35:48.510Z,99.99
2018-07-11T00:36:48.493Z,99.99
2018-07-11T00:37:48.478Z,99.99
2018-07-11T00:38:48.464Z,99.99
2018-07-11T00:39:48.448Z,99.99
2018-07-11T00:40:48.434Z,99.99
2018-07-11T00:41:48.417Z,99.99
2018-07-11T00:42:48.400Z,99.99
2018-07-11T00:43:48.386Z,99.99
2018-07-11T00:44:48.375Z,99.99
2018-07-11T00:45:48.365Z,99.99
2018-07-11T00:46:48.338Z,99.99
2018-07-11T00:47:48.323Z,99.99
2018-07-11T00:48:48.310Z,99.99
2018-07-11T00:49:48.294Z,99.99
2018-07-11T00:50:48.282Z,99.99
2018-07-11T00:51:48.262Z,99.99
2018-07-11T00:52:48.244Z,99.99
2018-07-11T00:53:48.235Z,99.99
2018-07-11T00:54:48.221Z,99.99
2018-07-11T00:55:48.201Z,99.99
2018-07-11T00:56:48.202Z,99.99
2018-07-11T00:57:48.165Z,99.99
2018-07-11T00:58:48.152Z,99.99
2018-07-11T00:59:48.136Z,99.99
2018-07-11T01:00:48.122Z,99.99
2018-07-11T01:01:48.104Z,99.99
2018-07-11T01:02:48.088Z,99.99
2018-07-11T01:03:48.078Z,99.99
2018-07-11T01:04:48.058Z,99.99
2018-07-11T01:05:48.041Z,99.99
2018-07-11T01:06:48.037Z,99.99
2018-07-11T01:07:48.010Z,99.99
2018-07-11T01:08:47.997Z,99.99
2018-07-11T01:09:47.979Z,99.99
2018-07-11T01:10:47.964Z,99.99
2018-07-11T01:11:47.949Z,99.99
2018-07-11T01:12:47.931Z,99.99
2018-07-11T01:13:47.915Z,99.99
2018-07-11T01:14:47.900Z,99.99
2018-07-11T01:15:47.888Z,99.99
2018-07-11T01:16:47.870Z,99.99
2018-07-11T01:17:47.852Z,99.99
2018-07-11T01:18:47.847Z,99.99
2018-07-11T01:19:47.825Z,99.99
2018-07-11T01:20:47.808Z,99.99
2018-07-11T01:21:47.790Z,99.99
2018-07-11T01:22:47.768Z,99.99
2018-07-11T01:23:47.761Z,99.99
2018-07-11T01:24:47.745Z,99.99
2018-07-11T01:25:47.733Z,99.99
2018-07-11T01:26:47.714Z,99.99
2018-07-11T01:27:47.698Z,99.99
2018-07-11T01:28:47.686Z,99.99
2018-07-11T01:29:47.667Z,99.99
2018-07-11T01:30:47.655Z,99.99
2018-07-11T01:31:47.640Z,99.99
2018-07-11T01:32:47.620Z,99.99
2018-07-11T01:33:47.606Z,99.99
2018-07-11T01:34:47.591Z,99.99
2018-07-11T01:35:47.584Z,99.99
2018-07-11T01:36:47.563Z,99.99
2018-07-11T01:37:47.542Z,99.99
2018-07-11T01:38:47.528Z,99.99
2018-07-11T01:39:47.513Z,99.99
2018-07-11T01:40:47.497Z,99.99
2018-07-11T01:41:47.482Z,99.99
2018-07-11T01:42:47.465Z,99.99
2018-07-11T01:43:47.451Z,99.99
2018-07-11T01:44:47.436Z,99.99
2018-07-11T01:45:47.423Z,99.99
2018-07-11T01:46:47.405Z,99.99
2018-07-11T01:47:47.388Z,99.99
2018-07-11T01:48:47.372Z,99.99
2018-07-11T01:49:47.356Z,99.99
2018-07-11T01:50:47.340Z,99.99
2018-07-11T01:51:47.326Z,99.99
2018-07-11T01:52:47.310Z,99.99
2018-07-11T01:53:47.293Z,99.99
2018-07-11T01:54:47.283Z,99.99
2018-07-11T01:55:47.264Z,99.99
2018-07-11T01:56:47.249Z,99.99
2018-07-11T01:57:47.234Z,99.99
2018-07-11T01:58:47.218Z,99.99
2018-07-11T01:59:47.202Z,99.99
2018-07-11T02:00:47.187Z,99.99
2018-07-11T02:01:47.170Z,99.99
2018-07-11T02:02:47.155Z,99.99
2018-07-11T02:03:47.144Z,99.99
2018-07-11T02:04:47.127Z,99.99
2018-07-11T02:05:47.116Z,99.99
2018-07-11T02:06:47.094Z,99.99
2018-07-11T02:07:47.080Z,99.99
2018-07-11T02:08:47.062Z,99.99
2018-07-11T02:09:47.052Z,99.99
2018-07-11T02:10:47.034Z,99.99
2018-07-11T02:11:47.019Z,99.99
2018-07-11T02:12:47.003Z,99.99
2018-07-11T02:13:46.987Z,99.99
2018-07-11T02:14:46.972Z,99.99
2018-07-11T02:15:46.957Z,99.99
2018-07-11T02:16:46.945Z,99.99
2018-07-11T02:17:46.926Z,99.99
2018-07-11T02:18:46.910Z,99.99
2018-07-11T02:19:46.895Z,99.99
2018-07-11T02:20:46.879Z,99.99
2018-07-11T02:21:46.867Z,99.99
2018-07-11T02:22:46.848Z,99.99
2018-07-11T02:23:46.836Z,99.99
2018-07-11T02:24:46.819Z,99.99
2018-07-11T02:25:46.805Z,99.99
2018-07-11T02:26:46.790Z,99.99
2018-07-11T02:27:46.774Z,99.99
2018-07-11T02:28:46.758Z,99.99
2018-07-11T02:29:46.742Z,99.99
2018-07-11T02:30:46.728Z,99.99
2018-07-11T02:31:46.713Z,99.99
2018-07-11T02:32:46.699Z,99.99
2018-07-11T02:33:46.685Z,99.99
2018-07-11T02:34:46.666Z,99.99
2018-07-11T02:35:46.652Z,99.99
2018-07-11T02:36:46.634Z,99.99
2018-07-11T02:37:46.621Z,99.99
2018-07-11T02:38:46.605Z,99.99
2018-07-11T02:39:46.590Z,99.99
2018-07-11T02:40:46.578Z,99.99
2018-07-11T02:41:46.559Z,99.99
2018-07-11T02:42:46.541Z,99.99
2018-07-11T02:43:46.532Z,99.99
2018-07-11T02:44:46.515Z,99.99
2018-07-11T02:45:46.498Z,99.99
2018-07-11T02:46:46.483Z,99.99
2018-07-11T02:47:46.468Z,99.99
2018-07-11T02:48:46.451Z,99.99
2018-07-11T02:49:46.436Z,99.99
2018-07-11T02:50:46.423Z,99.99
2018-07-11T02:51:46.406Z,99.99
2018-07-11T02:52:46.391Z,99.99
2018-07-11T02:53:46.375Z,99.99
2018-07-11T02:54:46.359Z,99.99
2018-07-11T02:55:46.344Z,99.99
2018-07-11T02:56:46.328Z,99.99
2018-07-11T02:57:46.312Z,99.99
2018-07-11T02:58:46.301Z,99.99
2018-07-11T02:59:46.286Z,99.99
2018-07-11T03:00:46.269Z,99.99
2018-07-11T03:01:46.255Z,99.99
2018-07-11T03:02:46.237Z,99.99
2018-07-11T03:03:46.223Z,99.99
2018-07-11T03:04:46.206Z,99.99
2018-07-11T03:05:46.191Z,99.99
2018-07-11T03:06:46.181Z,99.99
2018-07-11T03:07:46.163Z,99.99
2018-07-11T03:08:46.149Z,99.99
2018-07-11T03:09:46.133Z,99.99
2018-07-11T03:10:46.116Z,99.99
2018-07-11T03:11:46.098Z,99.99
2018-07-11T03:12:46.091Z,99.99
2018-07-11T03:13:46.069Z,99.99
2018-07-11T03:14:46.053Z,99.99
2018-07-11T03:15:46.041Z,99.99
2018-07-11T03:16:46.025Z,99.99
2018-07-11T03:17:46.009Z,99.99
2018-07-11T03:18:45.996Z,99.99
2018-07-11T03:19:45.978Z,99.99
2018-07-11T03:20:45.965Z,99.99
2018-07-11T03:21:45.946Z,99.99
2018-07-11T03:22:45.932Z,99.99
2018-07-11T03:23:45.917Z,99.99
2018-07-11T03:24:45.900Z,99.99
2018-07-11T03:25:45.885Z,99.99
2018-07-11T03:26:45.873Z,99.99
2018-07-11T03:27:45.856Z,99.99
2018-07-11T03:28:45.845Z,99.99
2018-07-11T03:29:45.825Z,99.99
2018-07-11T03:30:45.811Z,99.99
2018-07-11T03:31:45.796Z,99.99
2018-07-11T03:32:45.780Z,99.99
2018-07-11T03:33:45.766Z,99.99
2018-07-11T03:34:45.748Z,99.99
2018-07-11T03:35:45.733Z,99.99
2018-07-11T03:36:45.723Z,99.99
2018-07-11T03:37:45.706Z,99.99
2018-07-11T03:38:45.690Z,99.99
2018-07-11T03:39:45.675Z,99.99
2018-07-11T03:40:45.662Z,99.99
2018-07-11T03:41:45.648Z,99.99
2018-07-11T03:42:45.629Z,99.99
2018-07-11T03:43:45.613Z,99.99
2018-07-11T03:44:45.598Z,99.99
2018-07-11T03:45:45.589Z,99.99
2018-07-11T03:46:45.569Z,99.99
2018-07-11T03:47:45.556Z,99.99
2018-07-11T03:48:45.538Z,99.99
2018-07-11T03:49:45.523Z,99.99
2018-07-11T03:50:45.509Z,99.99
2018-07-11T03:51:45.497Z,99.99
2018-07-11T03:52:45.478Z,99.99
2018-07-11T03:53:45.482Z,99.99
2018-07-11T03:54:45.451Z,99.99
2018-07-11T03:55:45.432Z,99.99
2018-07-11T03:56:45.418Z,99.99
2018-07-11T03:57:45.404Z,99.99
2018-07-11T03:58:45.388Z,99.99
2018-07-11T03:59:45.373Z,99.99
2018-07-11T04:00:45.363Z,99.99
2018-07-11T04:01:45.343Z,99.99
2018-07-11T04:02:45.328Z,99.99
2018-07-11T04:03:45.316Z,99.99
2018-07-11T04:04:45.335Z,99.99
2018-07-11T04:05:45.283Z,99.99
2018-07-11T04:06:45.271Z,99.99
2018-07-11T04:07:45.259Z,99.99
2018-07-11T04:08:45.238Z,99.99
2018-07-11T04:09:45.222Z,99.99
2018-07-11T04:10:45.207Z,99.99
2018-07-11T04:11:45.193Z,99.99
2018-07-11T04:12:45.177Z,99.99
2018-07-11T04:13:45.166Z,99.99
2018-07-11T04:14:45.149Z,99.99
2018-07-11T04:15:45.140Z,99.99
2018-07-11T04:16:45.117Z,99.99
2018-07-11T04:17:45.111Z,99.99
2018-07-11T04:18:45.089Z,99.99
2018-07-11T04:19:45.078Z,99.99
2018-07-11T04:20:45.063Z,99.99
2018-07-11T04:21:45.046Z,99.99
2018-07-11T04:22:45.028Z,99.99
2018-07-11T04:23:45.022Z,99.99
2018-07-11T04:24:44.997Z,99.99
2018-07-11T04:25:44.984Z,99.99
2018-07-11T04:26:44.968Z,99.99
2018-07-11T04:27:44.955Z,99.99
2018-07-11T04:28:44.991Z,99.99
2018-07-11T04:29:44.920Z,99.99
2018-07-11T04:30:44.907Z,99.99
2018-07-11T04:31:44.893Z,99.99
2018-07-11T04:32:44.879Z,99.99
2018-07-11T04:33:44.863Z,99.99
2018-07-11T04:34:44.931Z,99.99
2018-07-11T04:35:44.833Z,99.99
2018-07-11T04:36:44.819Z,99.99
2018-07-11T04:37:44.803Z,99.99
2018-07-11T04:38:44.792Z,99.99
2018-07-11T04:39:44.774Z,99.99
2018-07-11T04:40:44.758Z,99.99
2018-07-11T04:41:44.748Z,99.99
2018-07-11T04:42:44.729Z,99.99
2018-07-11T04:43:44.715Z,99.99
2018-07-11T04:44:44.703Z,99.99
2018-07-11T04:45:44.684Z,99.99
2018-07-11T04:46:44.676Z,99.99
2018-07-11T04:47:44.665Z,99.99
2018-07-11T04:48:44.641Z,99.99
2018-07-11T04:49:44.625Z,99.99
2018-07-11T04:50:44.614Z,99.99
2018-07-11T04:51:44.596Z,99.99
2018-07-11T04:52:44.619Z,99.99
2018-07-11T04:53:44.568Z,99.99
2018-07-11T04:54:44.552Z,99.99
2018-07-11T04:55:44.537Z,99.99
2018-07-11T04:56:44.521Z,99.99
2018-07-11T04:57:44.508Z,99.99
2018-07-11T04:58:44.538Z,99.99
2018-07-11T04:59:44.481Z,99.99
2018-07-11T05:00:44.463Z,99.99
2018-07-11T05:01:44.448Z,99.99
2018-07-11T05:02:44.432Z,99.99
2018-07-11T05:03:44.419Z,99.99
2018-07-11T05:04:44.411Z,99.99
2018-07-11T05:05:44.389Z,99.99
2018-07-11T05:06:44.374Z,99.99
2018-07-11T05:07:44.361Z,99.99
2018-07-11T05:08:44.346Z,99.99
2018-07-11T05:09:44.332Z,99.99
2018-07-11T05:10:44.360Z,99.99
2018-07-11T05:11:44.303Z,99.99
2018-07-11T05:12:44.289Z,99.99
2018-07-11T05:13:44.273Z,99.99
2018-07-11T05:14:44.259Z,99.99
2018-07-11T05:15:44.246Z,99.99
2018-07-11T05:16:44.231Z,99.99
2018-07-11T05:17:44.217Z,99.99
2018-07-11T05:18:44.205Z,99.99
2018-07-11T05:19:44.192Z,99.99
2018-07-11T05:20:44.174Z,99.99
2018-07-11T05:21:44.162Z,99.99
2018-07-11T05:22:44.145Z,99.58
2018-07-11T05:23:44.131Z,99.99
2018-07-11T05:24:44.119Z,99.99
2018-07-11T05:25:44.100Z,99.99
2018-07-11T05:26:44.088Z,99.99
2018-07-11T05:27:44.119Z,99.99
2018-07-11T05:28:44.061Z,99.99
2018-07-11T05:29:44.046Z,99.99
2018-07-11T05:30:44.035Z,99.99
2018-07-11T05:34:27.290Z,99.96
2018-07-11T05:35:27.259Z,99.99
2018-07-11T05:36:27.310Z,99.99
2018-07-11T05:37:27.228Z,99.99
2018-07-11T05:38:27.213Z,99.99
2018-07-11T05:39:27.203Z,99.99
2018-07-11T05:40:27.187Z,99.99
2018-07-11T05:41:27.171Z,99.99
2018-07-11T05:45:10.411Z,98.96
2018-07-11T05:46:10.408Z,97.04
2018-07-11T05:47:10.383Z,97.91
2018-07-11T05:48:10.416Z,99.99
2018-07-11T05:49:10.354Z,99.99
2018-07-11T05:50:10.345Z,98.96
2018-07-11T05:51:10.327Z,99.15
2018-07-11T05:52:10.319Z,99.92
2018-07-11T05:53:10.296Z,99.99
2018-07-11T05:54:10.286Z,99.99
2018-07-11T05:55:10.272Z,99.73
2018-07-11T05:56:10.260Z,99.15
2018-07-11T05:57:10.243Z,99.92
2018-07-11T05:58:10.231Z,98.48
2018-07-11T05:59:10.215Z,97.14
2018-07-11T06:00:10.207Z,97.09
2018-07-11T06:01:10.186Z,97.38
2018-07-11T06:02:10.173Z,96.51
2018-07-11T06:03:10.163Z,95.65
2018-07-11T06:04:10.150Z,97.57
2018-07-11T06:05:10.132Z,96.13
2018-07-11T06:06:10.120Z,94.31
2018-07-11T06:07:10.105Z,96.75
2018-07-11T06:08:10.290Z,97.62
2018-07-11T06:09:10.078Z,95.50
2018-07-11T06:10:10.064Z,94.26
2018-07-11T06:11:10.053Z,93.77
2018-07-11T06:12:10.038Z,93.49
2018-07-11T06:13:10.024Z,91.52
2018-07-11T06:14:10.010Z,91.71
2018-07-11T06:15:10.001Z,91.71
2018-07-11T06:16:09.986Z,92.19
2018-07-11T06:17:09.970Z,90.36
2018-07-11T06:18:09.956Z,92.13
2018-07-11T06:19:09.944Z,93.87
2018-07-11T06:20:09.988Z,93.73
2018-07-11T06:21:09.918Z,93.96
2018-07-11T06:22:09.909Z,90.98
2018-07-11T06:23:09.891Z,88.87
2018-07-11T06:24:09.879Z,90.69
2018-07-11T06:25:09.865Z,88.39
2018-07-11T06:26:09.853Z,86.56
2018-07-11T06:27:09.845Z,86.46
2018-07-11T06:28:09.941Z,85.31
2018-07-11T06:29:09.814Z,87.62
2018-07-11T06:30:09.801Z,87.90
2018-07-11T06:31:09.794Z,90.02
2018-07-11T06:32:09.778Z,88.77
2018-07-11T06:33:09.762Z,88.10
2018-07-11T06:34:09.758Z,88.48
2018-07-11T06:35:09.739Z,86.56
2018-07-11T06:36:09.736Z,87.09
2018-07-11T06:37:09.714Z,88.96
2018-07-11T06:38:09.701Z,88.44
2018-07-11T06:39:09.694Z,88.15
2018-07-11T06:40:09.678Z,88.82
2018-07-11T06:41:09.665Z,87.09
2018-07-11T06:42:09.659Z,86.22
2018-07-11T06:43:09.643Z,83.73
2018-07-11T06:44:09.626Z,83.06
2018-07-11T06:45:09.613Z,84.30
2018-07-11T06:46:09.601Z,88.63
2018-07-11T06:47:09.589Z,86.32
2018-07-11T06:48:09.576Z,87.48
2018-07-11T06:49:09.563Z,85.94
2018-07-11T06:50:09.555Z,85.75
2018-07-11T06:51:09.540Z,83.96
2018-07-11T06:52:09.606Z,84.44
2018-07-11T06:53:09.512Z,87.23
2018-07-11T06:54:09.501Z,88.96
2018-07-11T06:55:09.488Z,85.02
2018-07-11T06:56:09.527Z,86.08
2018-07-11T06:57:09.463Z,86.27
2018-07-11T06:58:09.450Z,88.48
2018-07-11T06:59:09.438Z,88.43
2018-07-11T07:00:09.429Z,86.22
2018-07-11T07:01:09.413Z,86.60
2018-07-11T07:02:09.405Z,86.69
2018-07-11T07:03:09.387Z,85.25
2018-07-11T07:04:09.381Z,83.85
2018-07-11T07:05:09.364Z,83.33
2018-07-11T07:06:09.354Z,83.33
2018-07-11T07:07:09.344Z,83.04
2018-07-11T07:08:09.326Z,85.35
2018-07-11T07:09:09.318Z,85.16
2018-07-11T07:10:09.302Z,83.91
2018-07-11T07:11:09.293Z,83.08
2018-07-11T07:12:09.289Z,81.50
2018-07-11T07:13:09.266Z,82.94
2018-07-11T07:14:09.253Z,82.85
2018-07-11T07:15:09.247Z,82.56
2018-07-11T07:16:09.229Z,83.42
2018-07-11T07:17:09.217Z,83.47
2018-07-11T07:18:09.210Z,82.50
2018-07-11T07:19:09.193Z,84.14
2018-07-11T07:20:09.180Z,83.66
2018-07-11T07:21:09.167Z,82.98
2018-07-11T07:22:09.156Z,83.03
2018-07-11T07:23:09.147Z,84.28
2018-07-11T07:24:09.141Z,83.80
2018-07-11T07:25:09.121Z,82.26
2018-07-11T07:26:09.112Z,81.96
2018-07-11T07:27:09.096Z,83.51
2018-07-11T07:28:09.086Z,83.22
2018-07-11T07:29:09.211Z,81.68
2018-07-11T07:30:09.062Z,82.16
2018-07-11T07:31:09.052Z,82.35
2018-07-11T07:32:09.038Z,82.70
2018-07-11T07:33:09.032Z,79.61
2018-07-11T07:34:09.014Z,80.19
2018-07-11T07:35:09.003Z,81.16
2018-07-11T07:36:09.042Z,80.19
2018-07-11T07:37:08.977Z,80.96
2018-07-11T07:38:08.966Z,80.38
2018-07-11T07:39:08.956Z,79.52
2018-07-11T07:40:08.942Z,81.73
2018-07-11T07:41:08.932Z,80.87
2018-07-11T07:42:08.921Z,82.21
2018-07-11T07:43:08.906Z,80.29
2018-07-11T07:44:08.894Z,80.58
2018-07-11T07:45:08.882Z,82.50
2018-07-11T07:46:08.870Z,82.50
2018-07-11T07:47:08.894Z,80.19
2018-07-11T07:48:08.848Z,81.16
2018-07-11T07:49:08.835Z,82.02
2018-07-11T07:50:08.823Z,83.22
2018-07-11T07:51:08.810Z,80.62
2018-07-11T07:52:08.800Z,79.46
2018-07-11T07:53:08.788Z,79.46
2018-07-11T07:54:08.777Z,81.04
2018-07-11T07:55:08.764Z,79.50
2018-07-11T07:56:08.754Z,79.44
2018-07-11T07:57:08.746Z,79.77
2018-07-11T07:58:08.735Z,76.24
2018-07-11T07:59:08.725Z,75.16
2018-07-11T08:00:08.707Z,73.94
2018-07-11T08:01:08.695Z,72.62
2018-07-11T08:02:08.685Z,70.47
2018-07-11T08:03:08.677Z,63.85
2018-07-11T08:04:08.661Z,59.74
2018-07-11T08:05:08.656Z,58.73
2018-07-11T08:06:08.638Z,54.88
2018-07-11T08:07:08.630Z,57.72
2018-07-11T08:08:08.616Z,54.78
2018-07-11T08:09:08.603Z,57.06
2018-07-11T08:10:08.594Z,58.19
2018-07-11T08:11:08.584Z,57.75
2018-07-11T08:12:08.573Z,58.78
2018-07-11T08:13:08.562Z,60.24
2018-07-11T08:14:08.551Z,59.03
2018-07-11T08:15:08.540Z,55.99
2018-07-11T08:16:08.533Z,57.93
2018-07-11T08:17:08.517Z,53.13
2018-07-11T08:18:08.508Z,52.01
2018-07-11T08:19:08.500Z,52.35
2018-07-11T08:20:08.489Z,54.36
2018-07-11T08:21:08.482Z,56.57
2018-07-11T08:22:08.472Z,58.05
2018-07-11T08:23:08.462Z,55.63
2018-07-11T08:24:08.453Z,59.28
2018-07-11T08:25:08.445Z,59.00
2018-07-11T08:26:08.437Z,59.26
2018-07-11T08:27:08.494Z,61.55
2018-07-11T08:28:08.422Z,61.85
2018-07-11T08:29:08.409Z,60.10
2018-07-11T08:30:08.401Z,58.98
2018-07-11T08:31:08.395Z,63.62
2018-07-11T08:32:08.385Z,61.98
2018-07-11T08:33:08.376Z,64.27
2018-07-11T08:34:08.367Z,63.11
2018-07-11T08:35:08.469Z,63.31
2018-07-11T08:36:08.350Z,65.92
2018-07-11T08:37:08.340Z,60.30
2018-07-11T08:38:08.331Z,62.62
2018-07-11T08:39:08.330Z,59.74
2018-07-11T08:40:08.315Z,55.25
2018-07-11T08:41:08.311Z,52.31
2018-07-11T08:42:08.308Z,52.58
2018-07-11T08:43:08.300Z,47.34
2018-07-11T08:44:08.286Z,47.31
2018-07-11T08:45:08.277Z,46.88
2018-07-11T08:46:08.269Z,47.42
2018-07-11T08:47:08.263Z,52.26
2018-07-11T08:48:08.308Z,51.41
2018-07-11T08:49:08.248Z,50.92
2018-07-11T08:50:08.244Z,48.15
2018-07-11T08:51:08.238Z,50.36
2018-07-11T08:52:08.235Z,50.63
2018-07-11T08:53:08.232Z,52.55
2018-07-11T08:54:08.221Z,54.29
2018-07-11T08:55:08.268Z,54.27
2018-07-11T08:56:08.207Z,54.17
2018-07-11T08:57:08.197Z,56.18
2018-07-11T08:58:08.191Z,55.87
2018-07-11T08:59:08.185Z,56.13
2018-07-11T09:00:08.178Z,56.20
2018-07-11T09:01:08.170Z,58.30
2018-07-11T09:02:08.164Z,58.95
2018-07-11T09:03:08.161Z,60.01
2018-07-11T09:04:08.151Z,61.76
2018-07-11T09:05:08.146Z,60.69
2018-07-11T09:06:08.138Z,59.53
2018-07-11T09:07:08.133Z,59.63
2018-07-11T09:08:08.122Z,58.75
2018-07-11T09:09:08.113Z,57.88
2018-07-11T09:10:08.108Z,59.39
2018-07-11T09:11:08.109Z,60.45
2018-07-11T09:12:08.097Z,54.17
2018-07-11T09:13:08.088Z,54.56
2018-07-11T09:14:08.080Z,55.39
2018-07-11T09:15:08.074Z,50.85
2018-07-11T09:16:08.073Z,53.08
2018-07-11T09:17:08.070Z,49.80
2018-07-11T09:18:08.057Z,52.02
2018-07-11T09:19:08.052Z,47.88
2018-07-11T09:20:08.044Z,47.09
2018-07-11T09:21:08.036Z,43.99
2018-07-11T09:22:08.033Z,43.80
2018-07-11T09:23:08.027Z,44.76
2018-07-11T09:24:08.076Z,46.20
2018-07-11T09:26:08.013Z,44.07
2018-07-11T09:27:08.006Z,44.70
2018-07-11T09:28:08.002Z,45.70
2018-07-11T09:29:07.993Z,44.77
2018-07-11T09:30:07.990Z,43.84
2018-07-11T09:31:07.986Z,42.82
2018-07-11T09:32:07.981Z,39.39
2018-07-11T09:33:07.978Z,42.74
2018-07-11T09:34:07.971Z,38.84
2018-07-11T09:35:07.976Z,41.19
2018-07-11T09:36:07.965Z,37.74
2018-07-11T09:37:07.960Z,40.19
2018-07-11T09:38:07.955Z,38.62
2018-07-11T09:39:07.954Z,39.78
2018-07-11T09:40:07.951Z,38.39
2018-07-11T09:41:07.944Z,36.24
2018-07-11T09:42:07.942Z,35.81
2018-07-11T09:43:07.937Z,36.87
2018-07-11T09:44:07.934Z,40.25
2018-07-11T09:45:07.932Z,40.53
2018-07-11T09:46:07.928Z,43.53
2018-07-11T09:47:07.924Z,44.48
2018-07-11T09:48:07.922Z,43.88
2018-07-11T09:49:07.916Z,44.32
2018-07-11T09:50:07.912Z,44.40
2018-07-11T09:51:07.909Z,44.96
2018-07-11T09:52:07.961Z,46.88
2018-07-11T09:53:07.902Z,48.83
2018-07-11T09:54:07.900Z,49.41
2018-07-11T09:55:07.893Z,47.96
2018-07-11T09:56:07.890Z,47.76
2018-07-11T09:57:07.892Z,49.41
2018-07-11T09:58:07.882Z,47.47
2018-07-11T09:59:07.884Z,49.80
2018-07-11T10:00:07.874Z,47.96
2018-07-11T10:01:07.870Z,48.97
2018-07-11T10:02:07.872Z,48.22
2018-07-11T10:03:07.864Z,50.07
2018-07-11T10:04:07.853Z,51.89
2018-07-11T10:05:07.888Z,50.43
2018-07-11T10:06:07.844Z,49.76
2018-07-11T10:07:07.840Z,49.95
2018-07-11T10:08:07.839Z,49.46
2018-07-11T10:09:07.835Z,47.61
2018-07-11T10:10:07.826Z,46.28
2018-07-11T10:11:07.827Z,45.98
2018-07-11T10:12:07.815Z,45.15
2018-07-11T10:13:07.810Z,45.18
2018-07-11T10:14:07.810Z,48.05
2018-07-11T10:15:07.802Z,47.00
2018-07-11T10:16:07.800Z,45.75
2018-07-11T10:17:07.792Z,45.87
2018-07-11T10:18:07.788Z,44.53
2018-07-11T10:19:07.785Z,43.01
2018-07-11T10:20:07.781Z,41.76
2018-07-11T10:21:07.776Z,40.80
2018-07-11T10:22:07.775Z,38.20
2018-07-11T10:23:07.777Z,37.04
2018-07-11T10:24:07.764Z,39.41
2018-07-11T10:25:07.760Z,36.96
2018-07-11T10:26:07.757Z,36.92
2018-07-11T10:27:07.753Z,38.65
2018-07-11T10:28:07.765Z,41.13
2018-07-11T10:29:07.748Z,40.11
2018-07-11T10:30:07.747Z,42.24
2018-07-11T10:31:07.741Z,42.24
2018-07-11T10:32:07.739Z,41.56
2018-07-11T10:33:07.742Z,40.39
2018-07-11T10:34:07.733Z,40.48
2018-07-11T10:35:07.727Z,40.00
2018-07-11T10:36:07.724Z,40.01
2018-07-11T10:37:07.722Z,40.70
2018-07-11T10:38:07.720Z,39.45
2018-07-11T10:39:07.777Z,40.56
2018-07-11T10:40:07.712Z,39.41
2018-07-11T10:41:07.710Z,40.90
2018-07-11T10:42:07.710Z,39.54
2018-07-11T10:43:07.706Z,39.74
2018-07-11T10:44:07.703Z,37.13
2018-07-11T10:45:07.699Z,36.29
2018-07-11T10:46:07.700Z,36.90
2018-07-11T10:47:07.702Z,34.81
2018-07-11T10:48:07.693Z,35.55
2018-07-11T10:49:07.694Z,36.92
2018-07-11T10:50:07.687Z,36.43
2018-07-11T10:51:07.687Z,35.37
2018-07-11T10:52:07.685Z,34.30
2018-07-11T10:53:07.680Z,33.61
2018-07-11T10:54:07.780Z,34.08
2018-07-11T10:55:08.083Z,34.16
2018-07-11T10:56:07.676Z,36.40
2018-07-11T10:57:07.672Z,37.16
2018-07-11T10:58:07.671Z,38.90
2018-07-11T10:59:07.670Z,40.06
2018-07-11T11:00:07.679Z,38.45
2018-07-11T11:01:07.701Z,38.34
2018-07-11T11:02:07.661Z,41.73
2018-07-11T11:03:07.663Z,41.54
2018-07-11T11:04:07.655Z,42.12
2018-07-11T11:05:07.657Z,38.98
2018-07-11T11:06:07.649Z,40.52
2018-07-11T11:07:07.648Z,42.76
2018-07-11T11:08:07.743Z,42.69
2018-07-11T11:09:07.641Z,44.27
2018-07-11T11:10:07.638Z,39.59
2018-07-11T11:11:07.639Z,41.83
2018-07-11T11:12:07.642Z,39.90
2018-07-11T11:13:07.639Z,40.48
2018-07-11T11:14:07.638Z,40.89
2018-07-11T11:15:07.629Z,37.77
2018-07-11T11:16:07.623Z,39.23
2018-07-11T11:17:07.621Z,38.18
2018-07-11T11:18:07.617Z,36.70
2018-07-11T11:19:07.616Z,39.75
2018-07-11T11:20:07.614Z,39.72
2018-07-11T11:21:07.619Z,38.09
2018-07-11T11:22:07.610Z,38.38
2018-07-11T11:23:07.609Z,38.96
2018-07-11T11:24:07.607Z,42.77
2018-07-11T11:25:07.626Z,39.45
2018-07-11T11:26:07.602Z,37.89
2018-07-11T11:27:07.600Z,42.87
2018-07-11T11:28:07.601Z,40.82
2018-07-11T11:29:07.595Z,37.22
2018-07-11T11:30:07.595Z,39.86
2018-07-11T11:31:07.591Z,39.37
2018-07-11T11:32:07.591Z,39.76
2018-07-11T11:33:07.589Z,40.64
2018-07-11T11:34:07.586Z,40.17
2018-07-11T11:35:07.584Z,37.22
2018-07-11T11:36:07.582Z,35.75
2018-07-11T11:37:07.585Z,36.82
2018-07-11T11:38:07.578Z,37.60
2018-07-11T11:39:07.576Z,39.36
2018-07-11T11:40:07.578Z,40.06
2018-07-11T11:41:07.576Z,40.45
2018-07-11T11:42:07.749Z,37.52
2018-07-11T11:43:07.570Z,36.91
2018-07-11T11:44:07.571Z,37.11
2018-07-11T11:45:07.568Z,37.32
2018-07-11T11:46:07.571Z,38.57
2018-07-11T11:47:07.562Z,38.79
2018-07-11T11:48:07.561Z,38.90
2018-07-11T11:49:07.556Z,36.72
2018-07-11T11:50:07.554Z,37.50
2018-07-11T11:51:07.554Z,39.08
2018-07-11T11:52:07.552Z,37.24
2018-07-11T11:53:07.548Z,37.08
2018-07-11T11:54:07.547Z,35.14
2018-07-11T11:55:07.551Z,38.78
2018-07-11T11:56:07.546Z,36.65
2018-07-11T11:57:07.545Z,33.92
2018-07-11T11:58:07.543Z,35.11
2018-07-11T11:59:07.542Z,35.82
2018-07-11T12:00:07.544Z,33.07
2018-07-11T12:01:07.537Z,31.68
2018-07-11T12:02:07.537Z,31.97
2018-07-11T12:03:07.535Z,32.07
2018-07-11T12:04:07.534Z,32.38
2018-07-11T12:05:07.536Z,32.95
2018-07-11T12:06:07.533Z,31.27
2018-07-11T12:07:07.544Z,32.51
2018-07-11T12:08:07.527Z,34.45
2018-07-11T12:09:07.526Z,35.73
2018-07-11T12:10:07.527Z,35.85
2018-07-11T12:11:07.527Z,34.65
2018-07-11T12:12:07.522Z,33.75
2018-07-11T12:13:07.520Z,35.14
2018-07-11T12:14:07.518Z,33.58
2018-07-11T12:15:07.516Z,31.93
2018-07-11T12:16:07.519Z,32.01
2018-07-11T12:17:07.511Z,32.10
2018-07-11T12:18:07.512Z,31.83
2018-07-11T12:19:07.510Z,32.12
2018-07-11T12:20:07.511Z,36.84
2018-07-11T12:21:07.536Z,35.17
2018-07-11T12:22:07.503Z,35.49
2018-07-11T12:23:07.504Z,32.07
2018-07-11T12:24:07.503Z,29.91
2018-07-11T12:25:07.498Z,33.34
2018-07-11T12:26:07.504Z,32.01
2018-07-11T12:27:07.500Z,29.44
2018-07-11T12:28:07.523Z,30.60
2018-07-11T12:29:07.494Z,32.37
2018-07-11T12:30:07.493Z,31.97
2018-07-11T12:31:07.493Z,31.99
2018-07-11T12:32:07.490Z,31.29
2018-07-11T12:33:07.488Z,32.07
2018-07-11T12:34:07.488Z,31.96
2018-07-11T12:35:07.496Z,31.47
2018-07-11T12:36:07.486Z,33.94
2018-07-11T12:37:07.485Z,32.76
2018-07-11T12:38:07.481Z,31.86
2018-07-11T12:39:07.482Z,33.31
2018-07-11T12:40:07.480Z,31.83
2018-07-11T12:41:07.479Z,33.89
2018-07-11T12:42:07.477Z,33.48
2018-07-11T12:43:07.477Z,33.48
2018-07-11T12:44:07.470Z,32.97
2018-07-11T12:45:07.469Z,36.88
2018-07-11T12:46:07.465Z,35.42
2018-07-11T12:47:07.464Z,37.98
2018-07-11T12:48:07.467Z,37.12
2018-07-11T12:49:07.459Z,38.39
2018-07-11T12:50:07.457Z,36.24
2018-07-11T12:51:07.460Z,34.06
2018-07-11T12:52:07.455Z,36.69
2018-07-11T12:53:07.457Z,37.47
2018-07-11T12:54:07.448Z,39.80
2018-07-11T12:55:07.445Z,38.81
2018-07-11T12:56:07.443Z,39.76
2018-07-11T12:57:07.440Z,39.55
2018-07-11T12:58:07.438Z,40.99
2018-07-11T12:59:07.443Z,40.19